Time;durP1;ratioP1;P1;durP2;ratioP2;P2;SDS_P1;SDS_P2;PMS_P1;PMS_P2;Temp;Humidity;BMP_temperature;BMP_pressure;BME280_temperature;BME280_humidity;BME280_pressure;Samples;Min_cycle;Max_cycle;Signal;HPM_P1;HPM_P2
2023/04/17 00:02:05;;;;;;;18.90;12.65;;;8.90;99.90;;;;;;4995268;28;20203;-63
2023/04/17 00:04:33;;;;;;;13.82;12.40;;;8.90;99.90;;;;;;4994164;28;20310;-64
2023/04/17 00:07:02;;;;;;;14.90;12.38;;;8.80;99.90;;;;;;4994036;28;20200;-63
2023/04/17 00:09:29;;;;;;;17.00;12.13;;;8.80;99.90;;;;;;4994661;28;20203;-64
2023/04/17 00:11:56;;;;;;;16.85;12.70;;;8.80;99.90;;;;;;4994263;28;20239;-64
2023/04/17 00:14:23;;;;;;;14.05;12.52;;;8.70;99.90;;;;;;4993749;28;20733;-64
2023/04/17 00:16:50;;;;;;;18.80;13.40;;;8.70;99.90;;;;;;4993943;28;20234;-64
2023/04/17 00:19:17;;;;;;;14.35;11.88;;;8.60;99.90;;;;;;4993863;28;20203;-64
2023/04/17 00:21:45;;;;;;;14.55;12.98;;;8.60;99.90;;;;;;4993606;28;20294;-64
2023/04/17 00:24:12;;;;;;;19.48;13.60;;;8.60;99.90;;;;;;4993561;28;20219;-63
2023/04/17 00:26:39;;;;;;;18.35;13.10;;;8.60;99.90;;;;;;4994907;28;20535;-64
2023/04/17 00:29:06;;;;;;;15.60;12.93;;;8.60;99.90;;;;;;4997922;28;20207;-63
2023/04/17 00:31:33;;;;;;;16.00;12.85;;;8.60;99.90;;;;;;4997687;28;20210;-64
2023/04/17 00:34:00;;;;;;;15.00;12.57;;;8.50;99.90;;;;;;4997258;28;20215;-63
2023/04/17 00:36:26;;;;;;;18.88;12.50;;;8.50;99.90;;;;;;4997472;28;20694;-63
2023/04/17 00:38:55;;;;;;;14.40;12.90;;;8.50;99.90;;;;;;4997611;28;20210;-63
2023/04/17 00:41:22;;;;;;;18.17;13.30;;;8.40;99.90;;;;;;4997215;28;20215;-63
2023/04/17 00:43:49;;;;;;;16.75;13.77;;;8.40;99.90;;;;;;4997548;28;20207;-63
2023/04/17 00:46:16;;;;;;;17.75;13.43;;;8.40;99.90;;;;;;4997762;28;20622;-63
2023/04/17 00:48:43;;;;;;;18.30;13.07;;;8.40;99.90;;;;;;4997427;28;20258;-66
2023/04/17 00:51:10;;;;;;;14.55;13.07;;;8.40;99.90;;;;;;4997495;28;20203;-65
2023/04/17 00:53:37;;;;;;;15.55;12.45;;;8.30;99.90;;;;;;4997205;28;20203;-64
2023/04/17 00:56:07;;;;;;;20.33;14.65;;;8.30;99.90;;;;;;4997148;28;20685;-63
2023/04/17 00:58:35;;;;;;;15.15;13.55;;;8.30;99.90;;;;;;4997147;28;20674;-64
2023/04/17 01:01:03;;;;;;;19.13;14.85;;;8.30;99.90;;;;;;4997132;28;20207;-63
2023/04/17 01:03:31;;;;;;;16.02;13.55;;;8.30;99.90;;;;;;4996821;28;20203;-64
2023/04/17 01:05:59;;;;;;;15.30;12.95;;;8.20;99.90;;;;;;4996902;28;20734;-64
2023/04/17 01:08:26;;;;;;;16.77;13.70;;;8.20;99.90;;;;;;4996876;28;20571;-64
2023/04/17 01:10:52;;;;;;;15.07;13.05;;;8.20;99.90;;;;;;4997186;28;20287;-64
2023/04/17 01:13:21;;;;;;;20.77;14.18;;;8.20;99.90;;;;;;4996789;28;20712;-64
2023/04/17 01:15:48;;;;;;;16.80;13.70;;;8.20;99.90;;;;;;4996887;28;20229;-64
2023/04/17 01:18:15;;;;;;;16.95;13.20;;;8.10;99.90;;;;;;4996926;28;20223;-64
2023/04/17 01:20:42;;;;;;;14.40;12.57;;;8.10;99.90;;;;;;4997577;28;20618;-64
2023/04/17 01:23:09;;;;;;;17.08;13.35;;;8.10;99.90;;;;;;4996799;28;20307;-65
2023/04/17 01:25:37;;;;;;;18.10;12.90;;;8.10;99.90;;;;;;4996370;28;20236;-65
2023/04/17 01:28:04;;;;;;;16.23;12.43;;;8.00;99.90;;;;;;4996720;28;20576;-63
2023/04/17 01:30:31;;;;;;;19.42;14.73;;;8.00;99.90;;;;;;4996857;28;20227;-65
2023/04/17 01:32:58;;;;;;;16.25;12.70;;;8.00;99.90;;;;;;5005026;28;20229;-63
2023/04/17 01:35:24;;;;;;;17.27;13.30;;;8.00;99.90;;;;;;4996942;28;20224;-64
2023/04/17 01:37:51;;;;;;;17.15;14.00;;;8.00;99.90;;;;;;4996304;28;20427;-64
2023/04/17 01:40:18;;;;;;;17.13;12.55;;;7.90;99.90;;;;;;4996397;28;20210;-63
2023/04/17 01:42:46;;;;;;;16.45;12.50;;;7.90;99.90;;;;;;4996719;28;20291;-62
2023/04/17 01:45:14;;;;;;;15.60;12.98;;;7.90;99.90;;;;;;4997937;28;20659;-63
2023/04/17 01:47:40;;;;;;;19.73;14.05;;;7.90;99.90;;;;;;5003329;28;20678;-63
2023/04/17 01:50:08;;;;;;;17.92;13.00;;;7.80;99.90;;;;;;5002565;28;20219;-64
2023/04/17 01:52:35;;;;;;;16.75;12.65;;;7.90;99.90;;;;;;5003410;28;20215;-63
2023/04/17 01:55:03;;;;;;;14.88;13.27;;;7.80;99.90;;;;;;5002413;28;20227;-63
2023/04/17 01:57:31;;;;;;;16.55;11.98;;;7.80;99.90;;;;;;5000192;28;20271;-63
2023/04/17 01:59:59;;;;;;;15.32;13.38;;;7.80;99.90;;;;;;4998423;28;20211;-62
2023/04/17 02:02:26;;;;;;;16.88;12.75;;;7.80;99.90;;;;;;4997898;28;20294;-64
2023/04/17 02:04:52;;;;;;;18.92;14.18;;;7.70;99.90;;;;;;4996565;28;20235;-63
2023/04/17 02:07:19;;;;;;;17.55;14.02;;;7.70;99.90;;;;;;4996340;28;20208;-63
2023/04/17 02:09:46;;;;;;;17.40;14.80;;;7.70;99.90;;;;;;4997928;28;20208;-63
2023/04/17 02:12:13;;;;;;;17.08;14.77;;;7.70;99.90;;;;;;4998001;28;20208;-63
2023/04/17 02:14:40;;;;;;;17.30;13.63;;;7.70;99.90;;;;;;4996271;28;20686;-63
2023/04/17 02:17:08;;;;;;;16.50;13.70;;;7.60;99.90;;;;;;4996477;28;20219;-64
2023/04/17 02:19:35;;;;;;;18.52;13.38;;;7.70;99.90;;;;;;4996843;28;20204;-62
2023/04/17 02:22:01;;;;;;;18.52;13.50;;;7.60;99.90;;;;;;4996024;28;20760;-63
2023/04/17 02:24:29;;;;;;;14.25;12.02;;;7.60;99.90;;;;;;4995777;28;20321;-63
2023/04/17 02:26:56;;;;;;;14.90;13.30;;;7.60;99.90;;;;;;4995948;28;20180;-63
2023/04/17 02:29:23;;;;;;;17.27;13.93;;;7.60;99.90;;;;;;4995462;28;20734;-63
2023/04/17 02:31:50;;;;;;;15.30;13.05;;;7.60;99.90;;;;;;4995848;28;20203;-62
2023/04/17 02:34:18;;;;;;;18.30;13.80;;;7.60;99.90;;;;;;4995266;28;20318;-63
2023/04/17 02:36:45;;;;;;;16.80;12.88;;;7.50;99.90;;;;;;4995547;28;20230;-63
2023/04/17 02:39:11;;;;;;;16.08;13.55;;;7.60;99.90;;;;;;4995433;28;20214;-62
2023/04/17 02:41:38;;;;;;;17.70;13.10;;;7.50;99.90;;;;;;4995534;28;20199;-63
2023/04/17 02:44:05;;;;;;;17.15;12.10;;;7.50;99.90;;;;;;4995213;28;20620;-63
2023/04/17 02:46:32;;;;;;;16.92;13.90;;;7.50;99.90;;;;;;4997643;28;20212;-64
2023/04/17 02:48:59;;;;;;;14.93;13.13;;;7.50;99.90;;;;;;5003273;28;20276;-63
2023/04/17 02:51:27;;;;;;;17.42;12.65;;;7.50;99.90;;;;;;5003196;28;20230;-63
2023/04/17 02:53:53;;;;;;;17.33;13.38;;;7.50;99.90;;;;;;5001021;28;20212;-64
2023/04/17 02:56:20;;;;;;;15.18;13.52;;;7.40;99.90;;;;;;5003634;28;20388;-64
2023/04/17 02:58:47;;;;;;;16.85;13.43;;;7.50;99.90;;;;;;5002138;28;20203;-62
2023/04/17 03:01:14;;;;;;;16.85;13.40;;;7.40;99.90;;;;;;5003739;28;20673;-64
2023/04/17 03:03:41;;;;;;;17.75;14.43;;;7.40;99.90;;;;;;4999333;28;20199;-63
2023/04/17 03:06:08;;;;;;;14.48;12.88;;;7.40;99.90;;;;;;4994959;28;20247;-63
2023/04/17 03:08:37;;;;;;;17.08;12.82;;;7.40;99.90;;;;;;4994786;28;20200;-64
2023/04/17 03:11:04;;;;;;;14.02;12.48;;;7.40;99.90;;;;;;4995033;28;20370;-63
2023/04/17 03:13:34;;;;;;;16.00;12.77;;;7.40;99.90;;;;;;4994872;28;20215;-62
2023/04/17 03:16:02;;;;;;;19.92;13.65;;;7.40;99.90;;;;;;4994797;28;20270;-63
2023/04/17 03:18:29;;;;;;;15.63;12.73;;;7.40;99.90;;;;;;4996946;28;20664;-63
2023/04/17 03:20:56;;;;;;;17.23;13.63;;;7.40;99.90;;;;;;4995672;28;20570;-64
2023/04/17 03:23:22;;;;;;;18.67;13.63;;;7.40;99.90;;;;;;4994784;28;20204;-62
2023/04/17 03:25:51;;;;;;;15.13;12.65;;;7.30;99.90;;;;;;4994057;28;20267;-62
2023/04/17 03:28:18;;;;;;;16.25;12.65;;;7.30;99.90;;;;;;4994738;28;20210;-63
2023/04/17 03:30:45;;;;;;;18.67;14.02;;;7.30;99.90;;;;;;4994539;28;20258;-62
2023/04/17 03:33:11;;;;;;;17.65;13.20;;;7.30;99.90;;;;;;4995162;28;20234;-63
2023/04/17 03:35:38;;;;;;;20.98;14.00;;;7.30;99.90;;;;;;4994439;28;20736;-62
2023/04/17 03:38:05;;;;;;;19.02;13.50;;;7.30;99.90;;;;;;4994594;28;20318;-63
2023/04/17 03:40:32;;;;;;;17.17;12.85;;;7.30;99.90;;;;;;4995961;28;20208;-64
2023/04/17 03:43:01;;;;;;;18.02;13.55;;;7.30;99.90;;;;;;4995580;28;20290;-63
2023/04/17 03:45:27;;;;;;;16.75;13.63;;;7.20;99.90;;;;;;4994531;28;20223;-63
2023/04/17 03:47:54;;;;;;;17.08;13.73;;;7.20;99.90;;;;;;4996884;28;20207;-63
2023/04/17 03:50:21;;;;;;;17.10;13.13;;;7.20;99.90;;;;;;4996394;28;20211;-62
2023/04/17 03:52:48;;;;;;;16.35;14.13;;;7.20;99.90;;;;;;4995329;28;20200;-63
2023/04/17 03:55:16;;;;;;;18.52;11.88;;;7.20;99.90;;;;;;4995416;28;20562;-63
2023/04/17 03:57:43;;;;;;;19.33;13.45;;;7.20;99.90;;;;;;4995157;28;20254;-64
2023/04/17 04:00:12;;;;;;;18.13;13.07;;;7.20;99.90;;;;;;4995285;28;20576;-62
2023/04/17 04:02:39;;;;;;;16.98;12.40;;;7.10;99.90;;;;;;4994447;28;20204;-63
2023/04/17 04:05:07;;;;;;;17.35;14.43;;;7.10;99.90;;;;;;4995168;28;20230;-64
2023/04/17 04:07:34;;;;;;;16.85;12.90;;;7.10;99.90;;;;;;4994843;28;20546;-63
2023/04/17 04:11:33;;;;;;;23.77;12.98;;;7.10;99.90;;;;;;5105900;28;21097;-64
2023/04/17 04:14:00;;;;;;;16.33;13.27;;;7.10;99.90;;;;;;5106108;28;20196;-64
2023/04/17 04:16:27;;;;;;;21.02;13.85;;;7.10;99.90;;;;;;5106436;28;20204;-64
2023/04/17 04:18:54;;;;;;;15.48;13.07;;;7.10;99.90;;;;;;5105830;28;20263;-64
2023/04/17 04:21:20;;;;;;;14.63;12.82;;;7.00;99.90;;;;;;5093833;28;20197;-64
2023/04/17 04:23:48;;;;;;;18.67;14.05;;;7.00;99.90;;;;;;5090958;28;20575;-64
2023/04/17 04:26:15;;;;;;;22.13;13.48;;;7.10;99.90;;;;;;5100171;22;20263;-61
2023/04/17 04:28:43;;;;;;;16.35;13.45;;;7.10;99.90;;;;;;5073118;28;20200;-61
2023/04/17 04:31:13;;;;;;;17.30;12.75;;;7.00;99.90;;;;;;5071205;28;20219;-60
2023/04/17 04:33:40;;;;;;;15.55;12.52;;;7.00;99.90;;;;;;5071170;28;20667;-60
2023/04/17 04:36:07;;;;;;;15.35;12.63;;;7.00;99.90;;;;;;5071025;28;20227;-60
2023/04/17 04:38:34;;;;;;;17.50;13.15;;;7.00;99.90;;;;;;5071255;28;20197;-61
2023/04/17 04:41:09;;;;;;;21.13;13.65;;;7.00;99.90;;;;;;5070806;28;20197;-62
2023/04/17 04:43:36;;;;;;;15.10;12.77;;;7.00;99.90;;;;;;5071012;28;20196;-62
2023/04/17 04:46:04;;;;;;;16.75;12.85;;;7.00;99.90;;;;;;5070449;28;20307;-61
2023/04/17 04:48:31;;;;;;;15.88;12.18;;;7.00;99.90;;;;;;5071026;28;20208;-60
2023/04/17 04:50:57;;;;;;;16.58;12.13;;;7.00;99.90;;;;;;5070345;28;20228;-61
2023/04/17 04:53:24;;;;;;;19.00;13.57;;;7.00;99.90;;;;;;5070498;28;20216;-61
2023/04/17 04:55:51;;;;;;;18.05;13.10;;;7.00;99.90;;;;;;5070801;28;20225;-61
2023/04/17 04:58:18;;;;;;;17.92;13.40;;;7.00;99.90;;;;;;5070935;28;20201;-59
2023/04/17 05:00:45;;;;;;;15.90;12.90;;;7.10;99.90;;;;;;5070082;28;20667;-61
2023/04/17 05:03:13;;;;;;;15.30;13.60;;;7.10;99.90;;;;;;5070463;28;20577;-62
2023/04/17 05:05:40;;;;;;;24.17;13.98;;;7.10;99.90;;;;;;5070396;28;20736;-61
2023/04/17 05:08:07;;;;;;;19.63;13.77;;;7.10;99.90;;;;;;5071862;28;20205;-61
2023/04/17 05:10:34;;;;;;;20.58;13.02;;;7.10;99.90;;;;;;5070435;28;20223;-61
2023/04/17 05:13:01;;;;;;;15.65;12.52;;;7.20;99.90;;;;;;5070040;28;20255;-61
2023/04/17 05:15:27;;;;;;;18.08;12.55;;;7.20;99.90;;;;;;5069993;28;20710;-60
2023/04/17 05:17:54;;;;;;;17.77;12.88;;;7.20;99.90;;;;;;5070519;28;20299;-62
2023/04/17 05:20:22;;;;;;;16.75;12.52;;;7.30;99.90;;;;;;5071061;28;20319;-60
2023/04/17 05:22:49;;;;;;;20.27;13.90;;;7.30;99.90;;;;;;5057581;28;20215;-61
2023/04/17 05:25:16;;;;;;;16.25;12.65;;;7.30;99.90;;;;;;5057060;28;20229;-61
2023/04/17 05:27:43;;;;;;;13.45;11.55;;;7.30;99.90;;;;;;5057584;28;20208;-61
2023/04/17 05:30:10;;;;;;;21.77;11.95;;;7.40;99.90;;;;;;5057054;28;20218;-61
2023/04/17 05:32:37;;;;;;;19.33;13.07;;;7.40;99.90;;;;;;5056878;28;20201;-62
2023/04/17 05:35:05;;;;;;;15.05;12.05;;;7.40;99.90;;;;;;5057252;28;20228;-62
2023/04/17 05:37:33;;;;;;;19.00;14.02;;;7.50;99.90;;;;;;5057156;28;20206;-62
2023/04/17 05:40:00;;;;;;;15.77;12.27;;;7.50;99.90;;;;;;5057296;28;20198;-62
2023/04/17 05:42:27;;;;;;;14.30;12.38;;;7.60;99.90;;;;;;5057140;28;20209;-61
2023/04/17 05:44:54;;;;;;;18.38;12.20;;;7.60;99.90;;;;;;5057034;28;20228;-61
2023/04/17 05:47:20;;;;;;;16.27;12.80;;;7.70;99.90;;;;;;5057329;28;20204;-59
2023/04/17 05:49:50;;;;;;;16.65;12.77;;;7.70;99.90;;;;;;5057787;28;20653;-62
2023/04/17 05:52:16;;;;;;;18.52;12.13;;;7.80;99.90;;;;;;5059971;28;20216;-61
2023/04/17 05:54:45;;;;;;;19.95;11.80;;;7.80;99.90;;;;;;5059335;28;20222;-61
2023/04/17 05:57:11;;;;;;;16.80;11.55;;;7.90;99.90;;;;;;5058540;28;20206;-61
2023/04/17 05:59:38;;;;;;;14.93;12.65;;;8.00;99.90;;;;;;5056772;28;20684;-61
2023/04/17 06:02:05;;;;;;;16.42;12.20;;;8.00;99.90;;;;;;5058802;28;20206;-61
2023/04/17 06:04:32;;;;;;;15.90;12.30;;;8.10;99.90;;;;;;5059852;28;20212;-62
2023/04/17 06:06:59;;;;;;;14.80;11.95;;;8.20;99.90;;;;;;5060420;28;20266;-63
2023/04/17 06:09:26;;;;;;;20.25;12.88;;;8.30;99.90;;;;;;5058874;28;20233;-63
2023/04/17 06:11:54;;;;;;;17.42;12.88;;;8.40;99.90;;;;;;5056980;28;20221;-59
2023/04/17 06:14:21;;;;;;;13.90;12.20;;;8.40;99.90;;;;;;5056670;28;20210;-60
2023/04/17 06:16:48;;;;;;;15.10;11.85;;;8.40;99.90;;;;;;5057147;28;20201;-60
2023/04/17 06:19:14;;;;;;;17.52;12.48;;;8.50;99.90;;;;;;5056812;28;20674;-62
2023/04/17 06:21:41;;;;;;;14.10;12.48;;;8.60;99.90;;;;;;5056916;28;20280;-62
2023/04/17 06:24:09;;;;;;;13.73;12.02;;;8.70;99.90;;;;;;5057013;28;20197;-61
2023/04/17 06:26:35;;;;;;;15.30;13.32;;;8.70;99.90;;;;;;5068499;28;20251;-61
2023/04/17 06:29:04;;;;;;;18.95;11.60;;;8.80;99.90;;;;;;5071767;28;20202;-62
2023/04/17 06:31:30;;;;;;;13.45;12.05;;;8.90;99.90;;;;;;5070985;28;20290;-62
2023/04/17 06:33:57;;;;;;;14.07;12.57;;;9.00;99.90;;;;;;5069673;28;20206;-61
2023/04/17 06:36:25;;;;;;;12.90;11.55;;;9.00;99.90;;;;;;5069182;28;20225;-62
2023/04/17 06:38:51;;;;;;;13.98;11.82;;;9.20;99.90;;;;;;5072436;28;20212;-62
2023/04/17 06:41:18;;;;;;;14.75;11.25;;;9.20;99.90;;;;;;5064109;28;20272;-62
2023/04/17 06:43:45;;;;;;;15.68;12.52;;;9.30;99.90;;;;;;5058737;28;20312;-61
2023/04/17 06:46:13;;;;;;;15.77;11.43;;;9.40;99.90;;;;;;5059076;28;20228;-62
2023/04/17 06:48:40;;;;;;;13.93;10.80;;;9.60;99.90;;;;;;5058279;28;20208;-62
2023/04/17 06:51:07;;;;;;;15.23;11.37;;;9.70;99.90;;;;;;5058059;28;20213;-61
2023/04/17 06:53:33;;;;;;;15.00;12.30;;;9.70;99.90;;;;;;5057969;28;20440;-61
2023/04/17 06:56:00;;;;;;;16.30;10.30;;;9.80;99.90;;;;;;5058370;28;20468;-61
2023/04/17 06:58:27;;;;;;;13.18;10.48;;;9.80;99.90;;;;;;5057412;28;20545;-61
2023/04/17 07:00:54;;;;;;;13.07;10.93;;;10.00;99.90;;;;;;5056865;28;20288;-61
2023/04/17 07:03:22;;;;;;;16.30;11.13;;;10.00;99.90;;;;;;5056850;28;20448;-60
2023/04/17 07:05:49;;;;;;;17.80;11.50;;;10.10;99.90;;;;;;5056674;28;21008;-60
2023/04/17 07:08:17;;;;;;;16.40;10.30;;;10.20;99.90;;;;;;5056613;28;20479;-60
2023/04/17 07:10:44;;;;;;;14.27;10.93;;;10.40;99.90;;;;;;5056279;28;20542;-60
2023/04/17 07:13:11;;;;;;;12.80;10.70;;;10.50;99.90;;;;;;5056227;28;20964;-61
2023/04/17 07:15:37;;;;;;;14.53;11.50;;;10.60;99.90;;;;;;5058632;28;20479;-61
2023/04/17 07:18:04;;;;;;;14.57;10.93;;;10.70;99.90;;;;;;5059981;28;20448;-59
2023/04/17 07:20:32;;;;;;;13.57;11.97;;;10.70;99.90;;;;;;5061291;28;20440;-61
2023/04/17 07:22:59;;;;;;;15.03;11.20;;;10.80;99.90;;;;;;5061749;28;20452;-61
2023/04/17 07:25:26;;;;;;;15.47;10.87;;;10.80;99.90;;;;;;5058175;28;20514;-60
2023/04/17 07:27:55;;;;;;;12.33;10.43;;;10.80;99.90;;;;;;5055780;28;20444;-62
2023/04/17 07:30:22;;;;;;;13.40;10.70;;;10.80;99.90;;;;;;5055786;28;20448;-62
2023/04/17 07:32:49;;;;;;;14.33;10.43;;;10.90;99.90;;;;;;5055759;28;20451;-61
2023/04/17 07:35:16;;;;;;;15.67;10.57;;;11.10;99.90;;;;;;5054760;28;20817;-61
2023/04/17 07:37:44;;;;;;;16.97;10.43;;;11.30;99.70;;;;;;5055726;28;20554;-62
2023/04/17 07:40:13;;;;;;;15.20;10.40;;;11.50;98.60;;;;;;5054979;28;20450;-62
2023/04/17 07:42:40;;;;;;;13.93;9.87;;;11.60;97.40;;;;;;5055569;28;20449;-61
2023/04/17 07:45:07;;;;;;;16.30;10.20;;;11.60;96.30;;;;;;5055407;28;20472;-61
2023/04/17 07:47:34;;;;;;;17.23;10.80;;;11.70;95.80;;;;;;5057999;28;20445;-59
2023/04/17 07:50:01;;;;;;;12.27;9.50;;;11.80;95.20;;;;;;5055841;28;20541;-61
2023/04/17 07:52:28;;;;;;;11.50;9.03;;;12.00;94.30;;;;;;5055248;28;20489;-62
2023/04/17 07:54:57;;;;;;;12.37;8.73;;;12.00;92.90;;;;;;5056100;28;20998;-61
2023/04/17 07:57:25;;;;;;;16.33;9.70;;;12.00;91.50;;;;;;5063380;28;20452;-61
2023/04/17 07:59:52;;;;;;;15.00;10.13;;;12.00;91.00;;;;;;5058508;28;20450;-61
2023/04/17 08:02:19;;;;;;;11.20;10.00;;;12.00;90.90;;;;;;5055891;28;20448;-61
2023/04/17 08:04:46;;;;;;;12.60;9.63;;;12.00;90.00;;;;;;5055100;28;20539;-61
2023/04/17 08:07:13;;;;;;;13.43;8.80;;;12.10;89.20;;;;;;5055080;28;20872;-61
2023/04/17 08:09:40;;;;;;;15.37;10.70;;;12.10;87.80;;;;;;5054933;28;20471;-62
2023/04/17 08:12:08;;;;;;;10.77;9.53;;;12.20;85.80;;;;;;5056086;28;20491;-60
2023/04/17 08:14:35;;;;;;;11.97;9.43;;;12.30;83.50;;;;;;5056353;28;20454;-61
2023/04/17 08:17:02;;;;;;;12.00;9.37;;;12.30;82.50;;;;;;5055550;28;20869;-62
2023/04/17 08:19:29;;;;;;;11.57;9.40;;;12.30;81.70;;;;;;5055551;28;20448;-61
2023/04/17 08:22:02;;;;;;;13.00;10.63;;;12.50;79.80;;;;;;5055070;28;20513;-62
2023/04/17 08:24:30;;;;;;;13.20;9.37;;;12.60;78.50;;;;;;5055358;28;20845;-60
2023/04/17 08:26:57;;;;;;;11.73;9.70;;;12.60;76.70;;;;;;5056987;28;20444;-61
2023/04/17 08:29:26;;;;;;;15.57;10.53;;;12.70;76.50;;;;;;5058476;28;20459;-60
2023/04/17 08:31:52;;;;;;;12.10;8.90;;;12.80;75.60;;;;;;5056527;28;20486;-61
2023/04/17 08:34:20;;;;;;;14.37;9.97;;;13.00;74.40;;;;;;5058874;28;20444;-60
2023/04/17 08:36:47;;;;;;;12.53;11.23;;;13.20;73.50;;;;;;5059224;28;20559;-60
2023/04/17 08:39:15;;;;;;;11.30;9.67;;;13.40;72.00;;;;;;5060701;28;20444;-61
2023/04/17 08:41:48;;;;;;;12.50;8.87;;;13.60;70.90;;;;;;5059122;28;20468;-60
2023/04/17 08:44:19;;;;;;;9.67;8.67;;;13.70;69.50;;;;;;5058428;28;20446;-61
2023/04/17 08:46:47;;;;;;;10.10;9.10;;;13.80;68.90;;;;;;5059357;28;20494;-61
2023/04/17 08:49:15;;;;;;;13.40;10.30;;;13.90;67.50;;;;;;5062566;28;20448;-61
2023/04/17 08:51:42;;;;;;;10.37;8.70;;;14.00;66.70;;;;;;5066858;28;20487;-61
2023/04/17 08:54:08;;;;;;;12.20;9.20;;;14.10;66.50;;;;;;5068386;28;20515;-61
2023/04/17 08:56:35;;;;;;;11.37;9.50;;;14.10;64.90;;;;;;5069678;28;20916;-61
2023/04/17 08:59:03;;;;;;;10.60;8.40;;;14.10;64.30;;;;;;5069501;28;20440;-61
2023/04/17 09:01:30;;;;;;;10.60;9.10;;;14.10;63.90;;;;;;5067604;28;20846;-62
2023/04/17 09:03:58;;;;;;;10.07;9.00;;;14.10;62.90;;;;;;5068699;28;20468;-60
2023/04/17 09:06:26;;;;;;;9.80;8.83;;;14.00;62.40;;;;;;5067602;28;20456;-61
2023/04/17 09:08:57;;;;;;;9.70;8.70;;;14.00;61.90;;;;;;5068251;28;20447;-61
2023/04/17 09:11:24;;;;;;;12.03;9.20;;;14.00;61.40;;;;;;5068653;28;20475;-61
2023/04/17 09:13:52;;;;;;;10.33;9.23;;;13.90;61.20;;;;;;5070667;28;20436;-61
2023/04/17 09:16:19;;;;;;;12.90;8.50;;;13.90;61.20;;;;;;5070985;28;20978;-60
2023/04/17 09:18:46;;;;;;;11.73;8.00;;;13.90;60.60;;;;;;5071031;28;20448;-62
2023/04/17 09:21:17;;;;;;;9.10;8.17;;;13.90;59.20;;;;;;5071107;28;20446;-61
2023/04/17 09:23:50;;;;;;;10.03;8.33;;;14.00;58.90;;;;;;5064952;28;20436;-61
2023/04/17 09:26:19;;;;;;;9.60;8.60;;;14.10;58.50;;;;;;5058954;28;20476;-61
2023/04/17 09:29:03;;;;;;;9.40;8.43;;;14.10;58.00;;;;;;5059671;28;20443;-61
2023/04/17 09:31:33;;;;;;;8.77;7.60;;;14.30;57.30;;;;;;5059188;28;20475;-62
2023/04/17 09:34:01;;;;;;;7.27;6.57;;;14.50;56.20;;;;;;5059164;28;20447;-61
2023/04/17 09:36:30;;;;;;;8.63;7.47;;;14.80;54.00;;;;;;5059419;28;20820;-61
2023/04/17 09:38:59;;;;;;;8.33;6.70;;;15.10;52.40;;;;;;5060101;28;20458;-63
2023/04/17 09:41:27;;;;;;;8.70;7.83;;;15.50;50.90;;;;;;5058767;28;20816;-61
2023/04/17 09:43:55;;;;;;;8.03;7.00;;;15.70;49.30;;;;;;5059897;28;20444;-61
2023/04/17 09:46:44;;;;;;;12.13;7.20;;;15.70;48.10;;;;;;5059759;28;20468;-62
2023/04/17 09:49:19;;;;;;;12.83;8.17;;;15.70;47.90;;;;;;5059516;28;20429;-60
2023/04/17 09:51:48;;;;;;;8.33;7.37;;;15.60;47.70;;;;;;5059895;28;20536;-60
2023/04/17 09:54:16;;;;;;;8.17;7.40;;;15.40;47.30;;;;;;5060897;28;20460;-62
2023/04/17 09:56:44;;;;;;;9.13;7.93;;;15.30;47.60;;;;;;5059745;28;20533;-61
2023/04/17 09:59:11;;;;;;;8.80;7.20;;;15.10;47.70;;;;;;5058835;28;20799;-61
2023/04/17 10:01:39;;;;;;;9.03;7.70;;;15.10;47.80;;;;;;5059408;28;20440;-62
2023/04/17 10:04:06;;;;;;;10.43;7.87;;;14.90;48.00;;;;;;5059926;28;20440;-60
2023/04/17 10:06:34;;;;;;;9.10;7.03;;;14.90;48.40;;;;;;5058695;28;20492;-61
2023/04/17 10:09:04;;;;;;;9.27;7.60;;;15.00;48.70;;;;;;5058225;28;20475;-61
2023/04/17 10:11:36;;;;;;;10.77;8.13;;;15.20;48.60;;;;;;5057668;28;20549;-61
2023/04/17 10:14:09;;;;;;;8.50;7.57;;;15.30;48.70;;;;;;5059104;28;20429;-60
2023/04/17 10:16:37;;;;;;;9.50;7.70;;;15.40;48.90;;;;;;5060774;28;20474;-61
2023/04/17 10:19:26;;;;;;;7.20;6.50;;;15.50;49.10;;;;;;5061100;28;20540;-62
2023/04/17 10:22:31;;;;;;;10.00;7.10;;;15.60;48.80;;;;;;5060708;28;20925;-60
2023/04/17 10:25:21;;;;;;;10.87;6.90;;;15.70;48.50;;;;;;5076896;22;20490;-64
2023/04/17 10:27:50;;;;;;;8.33;7.47;;;16.00;47.80;;;;;;5054824;28;20448;-63
2023/04/17 10:30:18;;;;;;;8.33;7.50;;;16.10;46.90;;;;;;5055649;28;20452;-65
2023/04/17 10:32:46;;;;;;;7.83;7.03;;;16.00;46.20;;;;;;5055560;28;20480;-64
2023/04/17 10:35:35;;;;;;;7.03;6.33;;;15.80;46.00;;;;;;5055311;28;20460;-64
2023/04/17 10:38:05;;;;;;;8.70;7.60;;;15.60;46.10;;;;;;5055096;28;20822;-64
2023/04/17 10:40:35;;;;;;;8.70;7.30;;;15.50;46.20;;;;;;5055065;28;20823;-63
2023/04/17 10:43:07;;;;;;;9.00;7.80;;;15.50;46.70;;;;;;5055074;28;20956;-63
2023/04/17 10:46:09;;;;;;;8.53;6.60;;;15.60;46.80;;;;;;5055357;28;20467;-62
2023/04/17 10:48:39;;;;;;;11.17;7.50;;;15.70;47.10;;;;;;5013073;28;20492;-64
2023/04/17 10:51:39;;;;;;;9.33;6.70;;;15.80;47.00;;;;;;5013009;28;20830;-63
2023/04/17 10:54:09;;;;;;;10.03;7.93;;;15.90;47.20;;;;;;4968129;28;20642;-64
2023/04/17 10:56:39;;;;;;;9.40;7.07;;;15.90;47.20;;;;;;5039358;28;20468;-63
2023/04/17 10:59:07;;;;;;;11.13;6.93;;;16.00;47.20;;;;;;5054680;28;20910;-63
2023/04/17 11:01:39;;;;;;;8.63;7.10;;;16.00;47.20;;;;;;5054385;28;20957;-63
2023/04/17 11:04:07;;;;;;;8.10;6.80;;;16.20;47.30;;;;;;5054691;28;20424;-63
2023/04/17 11:06:37;;;;;;;11.80;7.70;;;16.40;47.00;;;;;;5054558;28;20515;-63
2023/04/17 11:09:08;;;;;;;6.63;6.03;;;16.60;46.70;;;;;;5054489;28;20472;-65
2023/04/17 11:11:39;;;;;;;6.30;5.53;;;16.70;46.50;;;;;;5054435;28;20443;-64
2023/04/17 11:14:09;;;;;;;7.00;6.20;;;16.80;46.10;;;;;;5054072;28;20429;-64
2023/04/17 11:16:37;;;;;;;8.07;7.27;;;16.80;45.70;;;;;;5054388;28;20472;-65
2023/04/17 11:19:05;;;;;;;8.47;6.33;;;16.90;45.50;;;;;;5053511;28;20450;-64
2023/04/17 11:21:32;;;;;;;7.80;6.03;;;17.10;44.90;;;;;;5054137;28;20445;-64
2023/04/17 11:24:02;;;;;;;8.17;5.83;;;17.10;44.70;;;;;;5054532;28;20444;-64
2023/04/17 11:26:28;;;;;;;9.07;6.63;;;17.20;44.80;;;;;;5054382;28;20474;-65
2023/04/17 11:28:58;;;;;;;8.80;6.20;;;17.30;44.80;;;;;;5053832;28;21000;-65
2023/04/17 11:31:25;;;;;;;7.63;6.17;;;17.40;44.60;;;;;;5053802;28;20827;-64
2023/04/17 11:33:52;;;;;;;7.10;6.03;;;17.40;44.20;;;;;;5053769;28;20443;-64
2023/04/17 11:36:19;;;;;;;7.57;5.80;;;17.20;43.70;;;;;;5053583;28;20465;-64
2023/04/17 11:38:49;;;;;;;7.00;6.27;;;17.10;44.00;;;;;;5054239;28;20456;-63
2023/04/17 11:41:16;;;;;;;6.40;5.80;;;17.00;44.40;;;;;;5053978;28;20527;-64
2023/04/17 11:43:43;;;;;;;9.10;6.70;;;17.10;44.30;;;;;;5053931;28;20526;-64
2023/04/17 11:46:11;;;;;;;6.80;6.20;;;17.30;44.40;;;;;;5053810;28;20503;-63
2023/04/17 11:48:38;;;;;;;11.37;7.13;;;17.40;44.20;;;;;;5053153;28;20869;-64
2023/04/17 11:51:06;;;;;;;6.57;5.97;;;17.40;44.30;;;;;;5053887;28;20511;-64
2023/04/17 11:53:35;;;;;;;6.90;6.20;;;17.50;44.40;;;;;;5053627;28;20575;-65
2023/04/17 11:56:13;;;;;;;7.80;6.60;;;17.50;44.40;;;;;;5053780;28;20460;-64
2023/04/17 11:58:46;;;;;;;7.90;6.30;;;17.30;44.50;;;;;;5053540;28;20455;-64
2023/04/17 12:01:15;;;;;;;9.53;6.30;;;17.30;44.60;;;;;;5053966;28;20436;-64
2023/04/17 12:03:42;;;;;;;7.73;5.83;;;17.40;44.60;;;;;;5053789;28;20531;-63
2023/04/17 12:06:10;;;;;;;8.90;6.70;;;17.50;44.40;;;;;;5053903;28;20467;-63
2023/04/17 12:08:49;;;;;;;8.47;6.20;;;17.50;44.40;;;;;;5054064;28;20539;-62
2023/04/17 12:11:29;;;;;;;10.37;6.70;;;17.40;44.60;;;;;;5053767;28;20458;-64
2023/04/17 12:13:57;;;;;;;6.80;6.17;;;17.20;44.90;;;;;;5053649;28;20464;-64
2023/04/17 12:16:27;;;;;;;7.53;6.73;;;17.20;45.00;;;;;;5053329;28;21002;-64
2023/04/17 12:18:55;;;;;;;7.63;6.40;;;17.10;45.10;;;;;;5053376;28;20432;-64
2023/04/17 12:21:22;;;;;;;8.20;6.37;;;17.00;45.20;;;;;;5054237;28;21008;-63
2023/04/17 12:23:50;;;;;;;7.23;6.50;;;17.00;45.10;;;;;;5054130;28;20448;-64
2023/04/17 12:26:17;;;;;;;7.67;6.70;;;16.80;45.10;;;;;;5053582;28;20850;-63
2023/04/17 12:28:44;;;;;;;7.83;6.30;;;16.70;45.30;;;;;;5053371;28;20956;-63
2023/04/17 12:31:11;;;;;;;8.13;6.60;;;16.40;45.50;;;;;;5053702;28;21008;-63
2023/04/17 12:33:40;;;;;;;7.43;6.43;;;16.30;45.90;;;;;;5058336;28;20487;-65
2023/04/17 12:36:07;;;;;;;9.53;6.53;;;16.30;46.20;;;;;;5058220;28;20506;-64
2023/04/17 12:38:35;;;;;;;9.53;7.00;;;16.40;46.20;;;;;;5058575;28;20447;-62
2023/04/17 12:41:02;;;;;;;8.80;6.30;;;16.70;46.10;;;;;;5057981;28;20813;-65
2023/04/17 12:43:28;;;;;;;9.60;6.63;;;16.80;45.60;;;;;;5057768;28;20440;-65
2023/04/17 12:45:57;;;;;;;8.30;6.00;;;16.80;45.30;;;;;;5057372;28;20838;-64